createdAt,value
2022-09-15T05:18:47.513Z,14.38
2022-09-15T05:28:49.938Z,13.90
2022-09-15T05:39:02.207Z,12.00
2022-09-15T05:49:41.621Z,11.77
2022-09-15T05:59:49.329Z,8.82
2022-09-15T06:09:54.312Z,6.05
2022-09-15T06:20:00.066Z,2.90
2022-09-15T06:30:10.084Z,2.03
2022-09-15T06:40:15.025Z,2.97
2022-09-15T06:50:52.901Z,23.90
2022-09-15T07:01:22.422Z,2.70
2022-09-15T07:11:25.405Z,2.90
2022-09-15T07:21:28.979Z,2.13
2022-09-15T07:31:59.847Z,2.70
2022-09-15T07:42:10.932Z,1.90
2022-09-15T08:03:36.946Z,3.40
2022-09-15T08:13:41.942Z,4.30
2022-09-15T08:23:44.567Z,5.88
2022-09-15T08:33:54.824Z,5.18
2022-09-15T08:44:08.523Z,4.53
2022-09-15T08:54:24.232Z,5.40
2022-09-15T09:05:05.158Z,4.63
2022-09-15T09:15:46.377Z,7.72
2022-09-15T09:25:50.242Z,11.13
2022-09-15T09:35:53.365Z,9.32
2022-09-15T09:45:55.431Z,16.15
2022-09-15T09:56:12.704Z,7.65
2022-09-15T10:06:43.275Z,5.55
2022-09-15T10:16:55.290Z,6.55
2022-09-15T10:27:12.655Z,5.80
2022-09-15T10:37:45.708Z,7.85
2022-09-15T10:48:23.035Z,11.68
2022-09-15T10:58:42.353Z,11.30
2022-09-15T11:09:05.359Z,9.57
2022-09-15T11:19:18.956Z,7.53
2022-09-15T11:29:24.957Z,14.52
2022-09-15T11:39:59.878Z,7.45
2022-09-15T11:50:43.516Z,7.47
2022-09-15T12:01:00.089Z,5.40
2022-09-15T12:11:07.659Z,7.93
2022-09-15T12:21:53.138Z,6.45
2022-09-15T12:32:28.715Z,6.30
2022-09-15T12:42:35.824Z,7.78
2022-09-15T12:53:10.492Z,7.45
2022-09-15T13:03:42.991Z,7.57
2022-09-15T13:14:00.425Z,9.48
2022-09-15T13:24:07.110Z,19.75
2022-09-15T13:45:05.184Z,12.20
2022-09-15T14:18:17.788Z,15.35
2022-09-15T14:39:26.808Z,17.27
2022-09-15T14:49:35.245Z,15.75
2022-09-15T14:59:40.565Z,16.37
2022-09-15T15:09:54.029Z,15.95
2022-09-15T15:20:17.011Z,11.25
2022-09-15T16:47:21.031Z,13.77
2022-09-15T17:08:37.920Z,21.73
2022-09-15T17:19:20.631Z,19.88
2022-09-15T17:40:55.109Z,35.55
2022-09-15T17:51:00.161Z,20.08
2022-09-15T18:01:05.143Z,18.67
2022-09-15T18:21:54.030Z,17.10
2022-09-15T18:32:05.574Z,13.50
2022-09-15T18:42:14.305Z,12.85
2022-09-15T18:52:25.887Z,12.83
2022-09-15T19:02:28.182Z,11.95
2022-09-15T19:12:30.574Z,14.13
2022-09-15T19:22:33.382Z,14.82
2022-09-15T19:43:33.074Z,19.15
2022-09-15T19:53:44.273Z,21.10
2022-09-15T20:24:08.348Z,12.10
2022-09-15T20:34:16.663Z,10.57
2022-09-15T20:44:18.600Z,11.23
2022-09-15T20:54:20.722Z,9.23
2022-09-15T21:04:22.861Z,8.35
2022-09-15T21:14:25.450Z,7.95
2022-09-15T21:24:27.669Z,7.40
2022-09-15T21:34:30.059Z,8.38
2022-09-15T21:44:32.593Z,7.90
2022-09-15T21:54:37.859Z,9.45
2022-09-15T22:05:43.931Z,7.15
2022-09-15T23:51:34.349Z,6.60
